Terminal Aerodrome Forecast
Issued by NWS Houston/Galveston, TX

Home | Current Version | Previous Version | Text Only | Print | Product List | Glossary On
Versions: 1 2 3 4 5 6 7 8 9 10 11 12 13 14 15 16 17 18 19 20 21 22
000
FTUS44 KHGX 311130
TAFCLL
TAF
KCLL 311130Z 3112/0112 34005KT 6SM BR FEW040
      TEMPO 3112/3114 4SM BR
     FM311500 02007KT P6SM SCT040
     FM312000 05007KT P6SM VCSH SCT050
     FM010000 VRB04KT P6SM SCT250=

USA.gov is the U.S. government's official web portal to all federal, state and local government web resources and services.